createdAt,value
2023-07-31T00:00:10.104Z,14.99
2023-07-31T00:02:42.958Z,14.97
2023-07-31T00:05:14.765Z,15.00
2023-07-31T00:07:46.574Z,14.99
2023-07-31T00:10:18.313Z,15.00
2023-07-31T00:12:49.891Z,14.99
2023-07-31T00:15:21.422Z,15.00
2023-07-31T00:17:53.062Z,15.00
2023-07-31T00:20:24.929Z,14.98
2023-07-31T00:22:57.296Z,14.96
2023-07-31T00:25:29.059Z,14.92
2023-07-31T00:28:00.845Z,14.91
2023-07-31T00:30:33.263Z,14.87
2023-07-31T00:33:05.205Z,14.85
2023-07-31T00:35:36.904Z,14.83
2023-07-31T00:38:08.595Z,14.83
2023-07-31T00:40:40.364Z,14.83
2023-07-31T00:43:12.116Z,14.83
2023-07-31T00:45:43.772Z,14.83
2023-07-31T00:48:15.515Z,14.84
2023-07-31T00:50:47.152Z,14.85
2023-07-31T00:53:19.228Z,14.87
2023-07-31T00:55:50.947Z,14.86
2023-07-31T00:58:22.670Z,14.88
2023-07-31T01:00:54.426Z,14.88
2023-07-31T01:03:26.341Z,14.91
2023-07-31T01:06:16.989Z,14.92
2023-07-31T01:09:03.903Z,14.94
2023-07-31T01:11:39.755Z,14.98
2023-07-31T01:14:11.429Z,14.99
2023-07-31T01:16:43.397Z,14.99
2023-07-31T01:19:19.091Z,15.01
2023-07-31T01:22:08.528Z,15.02
2023-07-31T01:24:55.826Z,15.04
2023-07-31T01:27:32.181Z,15.06
2023-07-31T01:30:15.666Z,15.06
2023-07-31T01:32:48.821Z,15.09
2023-07-31T01:35:20.572Z,15.10
2023-07-31T01:37:55.208Z,15.10
2023-07-31T01:40:27.159Z,15.10
2023-07-31T01:42:58.735Z,15.14
2023-07-31T01:45:30.369Z,15.14
2023-07-31T01:48:02.009Z,15.13
2023-07-31T01:50:33.635Z,15.13
2023-07-31T01:53:05.520Z,15.13
2023-07-31T01:55:37.134Z,15.16
2023-07-31T01:58:08.705Z,15.15
2023-07-31T02:00:40.450Z,15.13
2023-07-31T02:03:12.160Z,15.13
2023-07-31T02:05:48.613Z,15.14
2023-07-31T02:08:20.252Z,15.14
2023-07-31T02:10:52.894Z,15.17
2023-07-31T02:13:24.502Z,15.17
2023-07-31T02:15:56.274Z,15.18
2023-07-31T02:18:27.897Z,15.15
2023-07-31T02:20:59.760Z,15.14
2023-07-31T02:23:31.431Z,15.14
2023-07-31T02:26:03.252Z,15.13
2023-07-31T02:28:34.847Z,15.16
2023-07-31T02:31:06.614Z,15.16
2023-07-31T02:33:38.235Z,15.11
2023-07-31T02:36:09.841Z,15.13
2023-07-31T02:38:41.459Z,15.10
2023-07-31T02:41:13.060Z,15.08
2023-07-31T02:43:44.803Z,15.06
2023-07-31T02:46:16.444Z,15.00
2023-07-31T02:48:48.180Z,14.95
2023-07-31T02:51:20.027Z,14.94
2023-07-31T02:53:51.723Z,14.88
2023-07-31T02:56:23.590Z,14.87
2023-07-31T02:58:55.437Z,14.85
2023-07-31T03:01:27.213Z,14.83
2023-07-31T03:03:58.970Z,14.83
2023-07-31T03:06:30.526Z,14.78
2023-07-31T03:09:02.098Z,14.76
2023-07-31T03:11:33.732Z,14.74
2023-07-31T03:14:05.341Z,14.72
2023-07-31T03:16:37.430Z,14.71
2023-07-31T03:19:09.461Z,14.71
2023-07-31T03:21:41.292Z,14.65
2023-07-31T03:24:13.308Z,14.59
2023-07-31T03:26:45.097Z,14.51
2023-07-31T03:29:16.707Z,14.46
2023-07-31T03:31:48.359Z,14.42
2023-07-31T03:34:20.102Z,14.35
2023-07-31T03:36:51.656Z,14.32
2023-07-31T03:39:23.209Z,14.30
2023-07-31T03:41:54.956Z,14.28
2023-07-31T03:44:26.613Z,14.28
2023-07-31T03:46:58.238Z,14.27
2023-07-31T03:49:29.971Z,14.32
2023-07-31T03:52:01.629Z,14.28
2023-07-31T03:54:33.290Z,14.28
2023-07-31T03:57:05.420Z,14.30
2023-07-31T03:59:36.964Z,14.31
2023-07-31T04:02:08.606Z,14.36
2023-07-31T04:04:40.135Z,14.33
2023-07-31T04:07:11.734Z,14.35
2023-07-31T04:09:43.326Z,14.36
2023-07-31T04:12:14.933Z,14.34
2023-07-31T04:14:46.547Z,14.35
2023-07-31T04:17:21.316Z,14.33
2023-07-31T04:19:53.015Z,14.34
2023-07-31T04:22:24.772Z,14.34
2023-07-31T04:24:56.358Z,14.32
2023-07-31T04:27:27.978Z,14.34
2023-07-31T04:29:59.565Z,14.31
2023-07-31T04:32:31.291Z,14.30
2023-07-31T04:35:03.692Z,14.33
2023-07-31T04:37:35.312Z,14.30
2023-07-31T04:40:07.495Z,14.28
2023-07-31T04:42:39.155Z,14.27
2023-07-31T04:45:11.013Z,14.30
2023-07-31T04:47:42.732Z,14.31
2023-07-31T04:50:14.295Z,14.35
2023-07-31T04:52:45.982Z,14.34
2023-07-31T04:55:17.729Z,14.34
2023-07-31T04:57:49.440Z,14.35
2023-07-31T05:00:21.197Z,14.38
2023-07-31T05:02:52.901Z,14.35
2023-07-31T05:05:24.634Z,14.35
2023-07-31T05:07:56.218Z,14.37
2023-07-31T05:10:27.752Z,14.38
2023-07-31T05:12:59.322Z,14.39
2023-07-31T05:15:30.940Z,14.41
2023-07-31T05:18:02.650Z,14.44
2023-07-31T05:20:34.228Z,14.46
2023-07-31T05:23:05.874Z,14.47
2023-07-31T05:25:37.443Z,14.41
2023-07-31T05:28:09.226Z,14.39
2023-07-31T05:30:40.897Z,14.40
2023-07-31T05:33:14.777Z,14.42
2023-07-31T05:35:46.766Z,14.45
2023-07-31T05:38:18.418Z,14.45
2023-07-31T05:40:50.275Z,14.49
2023-07-31T05:43:21.938Z,14.52
2023-07-31T05:45:53.608Z,14.55
2023-07-31T05:48:25.284Z,14.60
2023-07-31T05:50:56.951Z,14.62
2023-07-31T05:53:28.698Z,14.57
2023-07-31T05:56:00.311Z,14.64
2023-07-31T05:58:31.959Z,14.64
2023-07-31T06:01:03.621Z,14.65
2023-07-31T06:03:35.333Z,14.65
2023-07-31T06:06:07.005Z,14.63
2023-07-31T06:08:38.670Z,14.67
2023-07-31T06:11:10.528Z,14.71
2023-07-31T06:13:44.119Z,14.72
2023-07-31T06:16:16.664Z,14.73
2023-07-31T06:18:48.617Z,14.76
2023-07-31T06:21:20.668Z,14.83
2023-07-31T06:23:55.453Z,14.81
2023-07-31T06:26:27.166Z,14.87
2023-07-31T06:28:58.953Z,14.89
2023-07-31T06:31:30.816Z,14.91
2023-07-31T06:34:02.506Z,14.87
2023-07-31T06:36:36.123Z,14.86
2023-07-31T06:39:07.743Z,14.90
2023-07-31T06:41:39.583Z,14.88
2023-07-31T06:44:11.904Z,14.93
2023-07-31T06:46:43.982Z,14.97
2023-07-31T06:49:18.141Z,14.95
2023-07-31T06:51:49.807Z,14.93
2023-07-31T06:54:21.394Z,14.93
2023-07-31T06:56:53.128Z,14.88
2023-07-31T06:59:24.663Z,14.94
2023-07-31T07:01:56.358Z,14.99
2023-07-31T07:04:27.895Z,14.99
2023-07-31T07:06:59.490Z,14.99
2023-07-31T07:09:31.069Z,15.03
2023-07-31T07:12:02.888Z,15.06
2023-07-31T07:14:34.437Z,15.00
2023-07-31T07:17:06.497Z,15.03
2023-07-31T07:19:44.571Z,14.98
2023-07-31T07:22:16.325Z,15.08
2023-07-31T07:24:48.087Z,15.06
2023-07-31T07:27:19.942Z,15.15
2023-07-31T07:29:53.756Z,15.12
2023-07-31T07:32:25.555Z,15.11
2023-07-31T07:34:57.725Z,15.16
2023-07-31T07:37:29.517Z,15.30
2023-07-31T07:40:01.145Z,15.38
2023-07-31T07:42:32.893Z,15.32
2023-07-31T07:45:05.121Z,15.34
2023-07-31T07:47:36.951Z,15.19
2023-07-31T07:50:10.134Z,15.21
2023-07-31T07:52:42.512Z,15.34
2023-07-31T07:55:14.154Z,15.48
2023-07-31T07:57:46.113Z,15.51
2023-07-31T08:00:18.591Z,15.47
2023-07-31T08:02:50.348Z,15.28
2023-07-31T08:05:22.332Z,15.35
2023-07-31T08:07:54.167Z,15.40
2023-07-31T08:10:25.943Z,15.49
2023-07-31T08:12:58.005Z,15.47
2023-07-31T08:15:29.803Z,15.48
2023-07-31T08:18:01.898Z,15.58
2023-07-31T08:20:33.468Z,15.45
2023-07-31T08:23:05.431Z,15.44
2023-07-31T08:25:37.678Z,15.30
2023-07-31T08:28:09.460Z,15.34
2023-07-31T08:30:41.180Z,15.44
2023-07-31T08:33:12.950Z,15.44
2023-07-31T08:35:44.689Z,15.45
2023-07-31T08:38:17.361Z,15.45
2023-07-31T08:40:48.929Z,15.48
2023-07-31T08:43:22.092Z,15.60
2023-07-31T08:45:54.242Z,15.56
2023-07-31T08:48:27.302Z,15.60
2023-07-31T08:50:58.955Z,15.59
2023-07-31T08:53:30.981Z,15.54
2023-07-31T08:56:03.606Z,15.41
2023-07-31T08:58:37.453Z,15.32
2023-07-31T09:01:09.718Z,15.44
2023-07-31T09:03:44.011Z,15.48
2023-07-31T09:06:19.510Z,15.26
2023-07-31T09:08:52.320Z,15.33
2023-07-31T09:11:25.537Z,15.38
2023-07-31T09:13:58.965Z,15.46
2023-07-31T09:16:33.295Z,15.50
2023-07-31T09:19:06.332Z,15.49
2023-07-31T09:21:49.035Z,15.48
2023-07-31T09:24:31.590Z,15.43
2023-07-31T09:27:03.541Z,15.47
2023-07-31T09:29:35.148Z,15.35
2023-07-31T09:32:17.505Z,15.33
2023-07-31T09:34:49.149Z,15.29
2023-07-31T09:37:20.958Z,15.00
2023-07-31T09:39:56.100Z,15.15
2023-07-31T09:42:28.273Z,15.07
2023-07-31T09:45:10.548Z,14.99
2023-07-31T09:47:48.751Z,15.06
2023-07-31T09:50:25.783Z,15.09
2023-07-31T09:52:57.925Z,15.28
2023-07-31T09:55:31.004Z,15.13
2023-07-31T09:58:10.398Z,15.05
2023-07-31T10:00:41.998Z,15.28
2023-07-31T10:03:18.974Z,15.32
2023-07-31T10:05:51.954Z,15.33
2023-07-31T10:08:31.088Z,15.45
2023-07-31T10:11:04.003Z,15.48
2023-07-31T10:13:35.688Z,15.66
2023-07-31T10:16:07.494Z,15.74
2023-07-31T10:18:41.037Z,15.77
2023-07-31T10:21:12.853Z,15.78
2023-07-31T10:23:46.038Z,15.84
2023-07-31T10:26:20.235Z,15.97
2023-07-31T10:28:54.046Z,16.04
2023-07-31T10:31:26.350Z,16.09
2023-07-31T10:34:00.790Z,16.11
2023-07-31T10:36:32.459Z,16.14
2023-07-31T10:39:05.561Z,16.17
2023-07-31T10:41:37.382Z,16.21
2023-07-31T10:44:09.638Z,16.30
2023-07-31T10:46:41.352Z,16.23
2023-07-31T10:49:22.433Z,16.22
2023-07-31T10:51:57.069Z,16.17
2023-07-31T10:54:29.081Z,16.22
2023-07-31T10:57:00.864Z,16.22
2023-07-31T10:59:36.320Z,16.25
2023-07-31T11:02:27.062Z,16.25
2023-07-31T11:05:11.868Z,16.29
2023-07-31T11:07:50.533Z,16.40
2023-07-31T11:10:24.120Z,16.49
2023-07-31T11:12:55.721Z,16.53
2023-07-31T11:15:28.640Z,16.66
2023-07-31T11:18:04.576Z,16.63
2023-07-31T11:20:38.169Z,16.65
2023-07-31T11:23:11.455Z,16.63
2023-07-31T11:25:43.437Z,16.66
2023-07-31T11:28:16.495Z,16.71
2023-07-31T11:30:48.541Z,16.80
2023-07-31T11:33:20.162Z,16.76
2023-07-31T11:35:51.871Z,16.65
2023-07-31T11:38:28.418Z,16.69
2023-07-31T11:41:04.867Z,16.76
2023-07-31T11:43:37.711Z,16.81
2023-07-31T11:46:10.692Z,16.92
2023-07-31T11:48:42.517Z,16.90
2023-07-31T11:51:15.786Z,16.92
2023-07-31T11:53:52.869Z,16.91
2023-07-31T11:56:25.248Z,16.92
2023-07-31T11:59:00.913Z,16.82
2023-07-31T12:01:33.315Z,16.81
2023-07-31T12:04:05.298Z,16.77
2023-07-31T12:06:39.071Z,16.84
2023-07-31T12:09:10.999Z,16.89
2023-07-31T12:11:47.604Z,16.98
2023-07-31T12:14:24.980Z,17.06
2023-07-31T12:16:58.315Z,17.09
2023-07-31T12:19:31.611Z,17.19
2023-07-31T12:22:03.710Z,17.17
2023-07-31T12:24:35.326Z,17.09
2023-07-31T12:27:15.349Z,17.06
2023-07-31T12:29:47.102Z,17.02
2023-07-31T12:32:22.310Z,16.95
2023-07-31T12:34:53.867Z,16.93
2023-07-31T12:37:25.511Z,16.84
2023-07-31T12:40:00.228Z,16.71
2023-07-31T12:42:32.380Z,16.66
2023-07-31T12:45:04.999Z,16.68
2023-07-31T12:47:36.648Z,16.75
2023-07-31T12:50:08.705Z,16.85
2023-07-31T12:52:40.362Z,16.88
2023-07-31T12:55:12.136Z,17.00
2023-07-31T12:57:43.701Z,17.07
2023-07-31T13:00:15.809Z,17.11
2023-07-31T13:02:47.483Z,17.11
2023-07-31T13:05:20.822Z,17.02
2023-07-31T13:07:53.327Z,16.99
2023-07-31T13:10:25.373Z,17.04
2023-07-31T13:12:57.370Z,17.09
2023-07-31T13:15:28.926Z,17.31
2023-07-31T13:18:00.769Z,17.80
2023-07-31T13:20:32.562Z,17.86
2023-07-31T13:23:04.195Z,17.78
2023-07-31T13:25:35.750Z,17.71
2023-07-31T13:28:07.502Z,17.63
2023-07-31T13:30:39.123Z,17.65
2023-07-31T13:33:25.196Z,17.75
2023-07-31T13:36:01.487Z,17.92
2023-07-31T13:38:33.161Z,17.83
2023-07-31T13:41:05.322Z,17.76
2023-07-31T13:43:37.668Z,17.79
2023-07-31T13:46:12.054Z,17.73
2023-07-31T13:48:43.785Z,17.77
2023-07-31T13:51:15.367Z,17.75
2023-07-31T13:53:46.880Z,17.79
2023-07-31T13:56:18.476Z,17.78
2023-07-31T13:58:50.121Z,17.59
2023-07-31T14:01:21.833Z,17.44
2023-07-31T14:03:53.529Z,17.40
2023-07-31T14:06:25.261Z,17.47
2023-07-31T14:08:56.805Z,17.40
2023-07-31T14:11:28.641Z,17.38
2023-07-31T14:14:00.231Z,17.32
2023-07-31T14:16:31.965Z,17.22
2023-07-31T14:19:03.915Z,17.24
2023-07-31T14:21:35.851Z,17.27
2023-07-31T14:24:07.449Z,17.25
2023-07-31T14:26:39.280Z,17.30
2023-07-31T14:29:11.011Z,17.40
2023-07-31T14:31:42.892Z,17.55
2023-07-31T14:34:14.670Z,17.63
2023-07-31T14:36:47.505Z,17.68
2023-07-31T14:39:19.046Z,17.72
2023-07-31T14:41:50.686Z,17.72
2023-07-31T14:44:22.269Z,17.70
2023-07-31T14:46:53.957Z,17.70
2023-07-31T14:49:25.628Z,17.78
2023-07-31T14:51:57.296Z,17.98
2023-07-31T14:54:28.913Z,18.04
2023-07-31T14:57:00.498Z,18.07
2023-07-31T14:59:32.043Z,18.04
2023-07-31T15:02:04.118Z,17.93
2023-07-31T15:04:36.594Z,17.74
2023-07-31T15:07:08.375Z,17.71
2023-07-31T15:09:39.982Z,17.64
2023-07-31T15:12:11.634Z,17.54
2023-07-31T15:14:43.391Z,17.58
2023-07-31T15:17:14.992Z,17.46
2023-07-31T15:19:46.630Z,17.53
2023-07-31T15:22:18.357Z,17.37
2023-07-31T15:24:50.213Z,17.36
2023-07-31T15:27:21.912Z,17.37
2023-07-31T15:29:53.622Z,17.32
2023-07-31T15:32:25.289Z,17.34
2023-07-31T15:34:57.006Z,17.43
2023-07-31T15:37:28.610Z,17.51
2023-07-31T15:40:00.240Z,17.55
2023-07-31T15:42:34.722Z,17.72
2023-07-31T15:45:08.198Z,17.71
2023-07-31T15:47:40.146Z,17.79
2023-07-31T15:50:11.931Z,17.93
2023-07-31T15:52:43.674Z,17.83
2023-07-31T15:55:15.313Z,17.78
2023-07-31T15:57:47.031Z,17.67
2023-07-31T16:00:19.012Z,17.60
2023-07-31T16:02:50.656Z,17.55
2023-07-31T16:05:22.312Z,17.52
2023-07-31T16:07:53.957Z,17.54
2023-07-31T16:10:25.602Z,17.53
2023-07-31T16:12:57.253Z,17.54
2023-07-31T16:15:29.490Z,17.57
2023-07-31T16:18:01.098Z,17.53
2023-07-31T16:20:32.853Z,17.54
2023-07-31T16:23:04.545Z,17.49
2023-07-31T16:25:36.171Z,17.47
2023-07-31T16:28:07.865Z,17.51
2023-07-31T16:30:39.608Z,17.51
2023-07-31T16:33:11.269Z,17.44
2023-07-31T16:35:42.834Z,17.48
2023-07-31T16:38:14.461Z,17.56
2023-07-31T16:40:48.297Z,17.60
2023-07-31T16:43:20.070Z,17.67
2023-07-31T16:45:52.345Z,17.72
2023-07-31T16:48:24.520Z,17.73
2023-07-31T16:50:56.098Z,17.74
2023-07-31T16:53:27.800Z,17.76
2023-07-31T16:56:00.838Z,17.80
2023-07-31T16:58:32.511Z,17.82
2023-07-31T17:01:05.296Z,17.86
2023-07-31T17:03:37.065Z,17.89
2023-07-31T17:06:08.714Z,17.91
2023-07-31T17:08:40.287Z,17.94
2023-07-31T17:11:11.960Z,17.96
2023-07-31T17:13:43.695Z,17.97
2023-07-31T17:16:15.496Z,17.95
2023-07-31T17:18:47.912Z,17.98
2023-07-31T17:21:19.571Z,17.96
2023-07-31T17:23:51.154Z,17.98
2023-07-31T17:26:23.778Z,18.00
2023-07-31T17:28:55.542Z,17.97
2023-07-31T17:31:27.847Z,17.98
2023-07-31T17:33:59.507Z,17.97
2023-07-31T17:36:33.201Z,17.96
2023-07-31T17:39:05.341Z,17.97
2023-07-31T17:41:36.900Z,17.97
2023-07-31T17:44:08.543Z,17.95
2023-07-31T17:46:40.536Z,17.98
2023-07-31T17:49:12.530Z,17.95
2023-07-31T17:51:44.070Z,17.94
2023-07-31T17:54:15.671Z,17.90
2023-07-31T17:56:47.212Z,17.87
2023-07-31T17:59:18.829Z,17.83
2023-07-31T18:01:50.566Z,17.83
2023-07-31T18:04:22.219Z,17.81
2023-07-31T18:06:53.771Z,17.75
2023-07-31T18:09:25.318Z,17.73
2023-07-31T18:11:57.995Z,17.63
2023-07-31T18:14:29.565Z,17.58
2023-07-31T18:17:01.785Z,17.54
2023-07-31T18:19:33.617Z,17.46
2023-07-31T18:22:05.225Z,17.36
2023-07-31T18:24:36.848Z,17.31
2023-07-31T18:27:09.034Z,17.23
2023-07-31T18:29:41.417Z,17.20
2023-07-31T18:32:13.737Z,17.17
2023-07-31T18:34:45.373Z,17.18
2023-07-31T18:37:17.003Z,17.19
2023-07-31T18:39:48.767Z,17.17
2023-07-31T18:42:20.413Z,17.19
2023-07-31T18:44:52.087Z,17.17
2023-07-31T18:47:23.598Z,17.13
2023-07-31T18:49:55.330Z,17.14
2023-07-31T18:52:26.949Z,17.13
2023-07-31T18:54:58.652Z,17.12
2023-07-31T18:57:30.256Z,17.10
2023-07-31T19:00:02.140Z,17.09
2023-07-31T19:02:33.867Z,17.07
2023-07-31T19:05:05.928Z,17.08
2023-07-31T19:07:37.602Z,17.05
2023-07-31T19:10:16.555Z,17.05
2023-07-31T19:12:48.926Z,17.06
2023-07-31T19:15:20.486Z,17.04
2023-07-31T19:17:52.162Z,16.99
2023-07-31T19:20:23.733Z,16.97
2023-07-31T19:22:55.421Z,16.95
2023-07-31T19:25:27.095Z,16.89
2023-07-31T19:27:58.960Z,16.87
2023-07-31T19:30:30.574Z,16.83
2023-07-31T19:33:02.270Z,16.72
2023-07-31T19:35:34.048Z,16.70
2023-07-31T19:38:05.653Z,16.68
2023-07-31T19:40:37.293Z,16.66
2023-07-31T19:43:08.935Z,16.63
2023-07-31T19:45:40.590Z,16.63
2023-07-31T19:48:12.198Z,16.67
2023-07-31T19:50:44.023Z,16.63
2023-07-31T19:53:15.735Z,16.64
2023-07-31T19:55:48.760Z,16.65
2023-07-31T19:58:20.552Z,16.62
2023-07-31T20:00:54.748Z,16.61
2023-07-31T20:03:26.365Z,16.63
2023-07-31T20:05:58.068Z,16.62
2023-07-31T20:08:29.830Z,16.62
2023-07-31T20:11:01.475Z,16.63
2023-07-31T20:13:33.547Z,16.64
2023-07-31T20:16:05.252Z,16.63
2023-07-31T20:18:38.890Z,16.62
2023-07-31T20:21:11.136Z,16.62
2023-07-31T20:23:43.894Z,16.61
2023-07-31T20:26:15.946Z,16.59
2023-07-31T20:28:47.706Z,16.58
2023-07-31T20:31:19.266Z,16.59
2023-07-31T20:33:51.143Z,16.56
2023-07-31T20:36:22.780Z,16.57
2023-07-31T20:38:54.311Z,16.57
2023-07-31T20:41:25.945Z,16.49
2023-07-31T20:43:57.976Z,16.44
2023-07-31T20:46:29.662Z,16.44
2023-07-31T20:49:01.366Z,16.45
2023-07-31T20:51:33.522Z,16.46
2023-07-31T20:54:05.956Z,16.47
2023-07-31T20:56:37.921Z,16.49
2023-07-31T20:59:10.617Z,16.49
2023-07-31T21:01:43.659Z,16.51
2023-07-31T21:04:16.050Z,16.45
2023-07-31T21:06:47.792Z,16.45
2023-07-31T21:09:19.336Z,16.44
2023-07-31T21:11:51.111Z,16.40
2023-07-31T21:14:22.788Z,16.35
2023-07-31T21:16:54.466Z,16.36
2023-07-31T21:19:26.047Z,16.33
2023-07-31T21:21:57.827Z,16.30
2023-07-31T21:24:29.425Z,16.23
2023-07-31T21:27:01.112Z,16.23
2023-07-31T21:29:32.764Z,16.21
2023-07-31T21:32:04.897Z,16.10
2023-07-31T21:34:36.740Z,16.10
2023-07-31T21:37:09.904Z,16.04
2023-07-31T21:39:41.614Z,15.97
2023-07-31T21:42:13.231Z,15.89
2023-07-31T21:44:44.905Z,15.78
2023-07-31T21:47:18.210Z,15.70
2023-07-31T21:49:50.012Z,15.64
2023-07-31T21:52:21.693Z,15.64
2023-07-31T21:54:53.458Z,15.60
2023-07-31T21:57:25.021Z,15.60
2023-07-31T21:59:56.614Z,15.59
2023-07-31T22:02:28.295Z,15.56
2023-07-31T22:05:00.171Z,15.52
2023-07-31T22:07:31.802Z,15.58
2023-07-31T22:10:03.706Z,15.56
2023-07-31T22:12:35.491Z,15.51
2023-07-31T22:15:07.756Z,15.49
2023-07-31T22:17:39.425Z,15.50
2023-07-31T22:20:11.505Z,15.50
2023-07-31T22:22:43.263Z,15.53
2023-07-31T22:25:14.888Z,15.57
2023-07-31T22:27:46.516Z,15.60
2023-07-31T22:30:18.160Z,15.59
2023-07-31T22:32:49.834Z,15.61
2023-07-31T22:35:21.604Z,15.63
2023-07-31T22:37:53.547Z,15.65
2023-07-31T22:40:25.200Z,15.65
2023-07-31T22:42:58.034Z,15.69
2023-07-31T22:45:29.789Z,15.71
2023-07-31T22:48:01.370Z,15.73
2023-07-31T22:50:33.025Z,15.73
2023-07-31T22:53:04.769Z,15.78
2023-07-31T22:55:36.458Z,15.80
2023-07-31T22:58:08.059Z,15.82
2023-07-31T23:00:39.697Z,15.83
2023-07-31T23:03:11.383Z,15.81
2023-07-31T23:05:44.797Z,15.80
2023-07-31T23:08:16.339Z,15.80
2023-07-31T23:10:51.414Z,15.79
2023-07-31T23:13:23.661Z,15.78
2023-07-31T23:15:55.275Z,15.77
2023-07-31T23:18:26.984Z,15.78
2023-07-31T23:20:58.745Z,15.74
2023-07-31T23:23:30.628Z,15.70
2023-07-31T23:26:02.336Z,15.66
2023-07-31T23:28:33.934Z,15.68
2023-07-31T23:31:05.912Z,15.69
2023-07-31T23:33:37.516Z,15.72
2023-07-31T23:36:13.091Z,15.74
2023-07-31T23:38:44.639Z,15.76
2023-07-31T23:41:18.076Z,15.76
2023-07-31T23:43:49.601Z,15.75
2023-07-31T23:46:21.500Z,15.78
2023-07-31T23:48:53.094Z,15.78
2023-07-31T23:51:24.674Z,15.77
2023-07-31T23:53:56.669Z,15.77
2023-07-31T23:56:28.282Z,15.76
2023-07-31T23:59:00.096Z,15.78
